Latest Weather Observations for Tunnack

IDT60801

Issued at 2:05 am EDT Friday 31 October 2014 (issued every 30 minutes, with the page automatically refreshed every 10 minutes)

About weather observations | Map of weather stations | Latest weather observations for TAS | Other Formats
Station Details ID: 094195 Name: TUNNACK FIRE STATION Lat: -42.45 Lon: 147.46 Height: 461.5 m
Data from the previous 72 hours. | See also: Recent months at Tunnack
Date/Time
EDT
Temp
°C
App
Temp
°C
Dew
Point
Rel
Hum
%
Delta-T
°C
Wind Press
QNH
hPa
Press
MSL
hPa
Rain
since 9 am
mm
Dir
 
Spd
km/h
Gust
km/h
Spd
kts
Gust
kts
31/02:00am 5.8 3.7 5.7 99 0.0 E 6 7 3 4 1007.5 1007.7 1.6
31/01:30am 5.8 3.7 5.7 99 0.0 ENE 6 7 3 4 1007.9 1008.1 1.6
31/01:00am 5.9 3.6 5.8 99 0.0 NNE 7 13 4 7 1008.4 1008.6 1.6
31/12:30am 6.1 3.9 5.5 96 0.3 E 6 7 3 4 1008.5 1008.7 1.6
31/12:00am 7.1 6.1 5.6 90 0.7 ENE 0 6 0 3 1008.7 1008.9 1.6
 
Date/Time
EDT
Temp
°C
App
Temp
°C
Dew
Point
Rel
Hum
%
Delta-T
°C
Wind Press
QNH
hPa
Press
MSL
hPa
Rain
since 9 am
mm
Dir
 
Spd
km/h
Gust
km/h
Spd
kts
Gust
kts
30/11:30pm 7.9 5.2 5.7 86 1.0 NW 9 11 5 6 1008.9 1009.1 1.6
30/11:00pm 8.2 6.2 6.2 87 0.9 NW 6 9 3 5 1009.2 1009.4 1.6
30/10:30pm 8.6 6.7 6.7 88 0.9 NW 6 7 3 4 1009.3 1009.5 1.6
30/10:00pm 8.7 5.9 6.8 88 0.9 WNW 11 13 6 7 1009.3 1009.5 1.6
30/09:30pm 9.0 6.0 6.1 82 1.4 W 11 15 6 8 1009.2 1009.4 1.6
30/09:00pm 9.0 6.0 6.1 82 1.4 WNW 11 15 6 8 1009.3 1009.5 1.6
30/08:30pm 9.8 6.1 6.2 78 1.7 WNW 15 20 8 11 1009.3 1009.5 1.6
30/08:00pm 10.1 6.4 6.4 78 1.8 WNW 15 22 8 12 1009.0 1009.2 1.6
30/07:30pm 9.6 7.5 8.4 92 0.6 SSW 9 9 5 5 1008.9 1009.1 1.6
30/07:00pm 9.6 4.5 7.5 87 1.0 SW 24 35 13 19 1008.9 1009.1 1.6
30/06:30pm 11.2 7.3 7.3 77 1.9 WNW 17 20 9 11 1008.2 1008.4 1.6
30/06:00pm 11.7 8.9 7.0 73 2.3 SW 11 19 6 10 1008.1 1008.3 1.6
30/05:30pm 11.8 9.4 7.1 73 2.3 SW 9 13 5 7 1008.0 1008.2 1.6
30/05:00pm 12.1 8.7 7.8 75 2.2 WSW 15 20 8 11 1008.0 1008.2 1.6
30/04:30pm 12.5 8.8 8.0 74 2.3 W 17 28 9 15 1007.9 1008.1 1.6
30/04:00pm 11.0 7.5 8.9 87 1.1 SSW 17 22 9 12 1007.9 1008.1 1.6
30/03:30pm 11.5 9.0 9.8 89 0.9 W 13 26 7 14 1007.7 1008.0 1.6
30/03:00pm 10.9 8.0 9.8 93 0.6 WSW 15 22 8 12 1007.6 1007.8 1.4
30/02:30pm 11.9 9.1 8.7 81 1.6 SSW 13 26 7 14 1007.5 1007.7 0.0
30/02:00pm 13.4 8.8 8.3 71 2.6 WNW 22 32 12 17 1007.1 1007.3 0.0
30/01:30pm 13.0 8.3 9.1 77 2.0 WNW 24 33 13 18 1007.1 1007.3 0.0
30/01:00pm 13.4 9.7 9.5 77 2.0 W 19 28 10 15 1007.3 1007.5 0.0
30/12:45pm 11.7 6.1 8.7 82 1.5 W 28 46 15 25 1007.5 1007.7 0.0
30/12:30pm 14.0 8.3 6.8 62 3.6 WNW 26 37 14 20 1007.0 1007.2 0.0
30/12:00pm 14.7 9.0 8.2 65 3.4 WNW 28 41 15 22 1007.2 1007.4 0.0
30/11:30am 12.9 6.5 7.1 68 2.9 WNW 30 46 16 25 1007.6 1007.8 0.0
30/11:28am 12.3 6.1 6.1 66 3.0 WNW 28 46 15 25 1007.6 1007.8 0.0
30/11:00am 11.9 6.1 6.2 68 2.8 WNW 26 44 14 24 1007.9 1008.1 0.0
30/10:30am 11.3 5.6 6.8 74 2.2 NW 26 33 14 18 1007.9 1008.1 0.0
30/10:00am 11.7 5.5 6.2 69 2.7 WNW 28 41 15 22 1007.9 1008.1 0.0
30/09:30am 11.4 6.4 6.5 72 2.4 WNW 22 33 12 18 1007.9 1008.1 0.0
30/09:00am 11.5 5.5 7.0 74 2.2 NW 28 39 15 21 1007.9 1008.1 0.0
30/08:30am 10.5 5.6 6.8 78 1.8 WNW 22 30 12 16 1007.9 1008.1 0.0
30/08:00am 9.8 5.4 6.5 80 1.6 WNW 19 24 10 13 1007.9 1008.1 0.0
30/07:30am 9.5 5.0 6.2 80 1.6 WNW 19 30 10 16 1007.6 1007.8 0.0
30/07:00am 9.2 6.9 5.8 79 1.6 NW 7 11 4 6 1007.4 1007.6 0.0
30/06:30am 8.8 4.9 5.4 79 1.6 NW 15 20 8 11 1007.0 1007.2 0.0
30/06:00am 8.4 6.2 5.3 81 1.4 NW 6 11 3 6 1006.9 1007.1 0.0
30/05:30am 7.3 5.4 4.8 84 1.1 ENE 4 7 2 4 1006.8 1007.0 0.0
30/05:00am 7.0 4.7 4.7 85 1.0 NW 6 9 3 5 1006.8 1007.0 0.0
30/04:30am 6.9 4.3 4.4 84 1.1 W 7 13 4 7 1006.8 1007.0 0.0
30/04:00am 7.7 4.1 5.2 84 1.1 WNW 13 24 7 13 1006.9 1007.1 0.0
30/03:30am 7.7 3.7 4.8 82 1.3 WNW 15 19 8 10 1007.0 1007.2 0.0
30/03:00am 8.4 3.7 5.3 81 1.4 WNW 19 26 10 14 1007.0 1007.2 0.0
30/02:30am 9.0 3.4 5.6 79 1.6 WNW 24 35 13 19 1007.0 1007.2 0.0
30/02:00am 9.0 4.2 5.4 78 1.7 W 20 32 11 17 1007.3 1007.5 0.0
30/01:30am 8.6 4.4 5.5 81 1.4 WNW 17 24 9 13 1007.2 1007.4 0.0
30/01:00am 8.6 3.9 5.2 79 1.6 NW 19 24 10 13 1007.4 1007.6 0.0
30/12:30am 9.5 4.3 5.5 76 1.9 WNW 22 28 12 15 1007.9 1008.1 0.0
30/12:00am 8.9 4.7 5.8 81 1.5 WNW 17 20 9 11 1007.9 1008.1 0.0
 
Date/Time
EDT
Temp
°C
App
Temp
°C
Dew
Point
Rel
Hum
%
Delta-T
°C
Wind Press
QNH
hPa
Press
MSL
hPa
Rain
since 9 am
mm
Dir
 
Spd
km/h
Gust
km/h
Spd
kts
Gust
kts
29/11:30pm 9.0 3.1 5.6 79 1.6 WNW 26 35 14 19 1007.7 1008.0 0.0
29/11:00pm 10.0 4.0 5.4 73 2.2 W 26 43 14 23 1007.9 1008.1 0.0
29/10:30pm 9.3 3.7 5.5 77 1.8 WNW 24 41 13 22 1008.0 1008.2 0.0
29/10:00pm 10.2 4.2 5.4 72 2.3 WNW 26 41 14 22 1008.0 1008.2 0.0
29/09:30pm 9.5 3.8 5.1 74 2.0 WNW 24 32 13 17 1008.0 1008.2 0.0
29/09:00pm 10.0 4.0 5.2 72 2.2 WNW 26 44 14 24 1007.5 1007.7 0.0
29/08:30pm 11.0 2.1 5.3 68 2.7 W 41 67 22 36 1007.0 1007.2 0.0
29/08:00pm 11.4 3.4 5.5 67 2.8 W 37 59 20 32 1006.9 1007.1 0.0
29/07:30pm 11.8 3.6 5.0 63 3.2 W 37 61 20 33 1006.6 1006.8 0.0
29/07:00pm 12.2 3.6 4.4 59 3.6 W 39 59 21 32 1006.4 1006.6 0.0
29/06:30pm 13.0 4.4 4.4 56 4.0 W 39 57 21 31 1006.6 1006.8 0.0
29/06:00pm 14.2 6.4 5.0 54 4.4 W 35 67 19 36 1007.0 1007.2 0.0
29/05:30pm 14.6 6.8 4.9 52 4.7 W 35 61 19 33 1007.0 1007.2 0.0
29/05:00pm 14.7 6.5 4.7 51 4.8 W 37 59 20 32 1007.0 1007.2 0.0
29/04:30pm 15.2 7.1 5.4 52 4.8 W 37 59 20 32 1006.9 1007.1 0.0
29/04:00pm 15.0 6.1 5.0 51 4.8 W 41 61 22 33 1006.7 1006.9 0.0
29/03:30pm 15.2 6.3 4.9 50 5.0 W 41 61 22 33 1006.6 1006.8 0.0
29/03:29pm 15.2 6.7 5.1 51 4.9 W 39 61 21 33 1006.7 1006.9 0.0
29/03:24pm 15.0 3.2 5.5 53 4.6 WNW 57 76 31 41 1006.7 1006.9 0.0
29/03:20pm 15.2 3.0 5.4 52 4.8 WNW 59 69 32 37 1006.6 1006.8 0.0
29/03:00pm 15.7 7.0 5.9 52 4.9 W 41 65 22 35 1006.9 1007.1 0.0
29/02:42pm 15.8 7.0 5.4 50 5.1 WNW 41 61 22 33 1007.1 1007.3 0.0
29/02:30pm 15.9 6.8 6.1 52 4.9 WNW 43 57 23 31 1007.2 1007.4 0.0
29/02:00pm 15.4 7.4 5.9 53 4.7 W 37 57 20 31 1007.7 1008.0 0.0
29/01:59pm 15.4 7.4 5.6 52 4.8 W 37 57 20 31 1007.7 1008.0 0.0
29/01:52pm 14.9 6.7 4.9 51 4.8 W 37 48 20 26 1007.9 1008.1 0.0
29/01:33pm 14.5 2.1 4.8 52 4.6 WNW 59 78 32 42 1007.6 1007.8 0.0
29/01:30pm 14.6 1.6 5.4 54 4.5 WNW 63 78 34 42 1007.6 1007.8 0.0
29/01:29pm 14.6 1.1 4.9 52 4.7 WNW 65 78 35 42 1007.6 1007.8 0.0
29/01:00pm 13.4 4.2 5.3 58 3.9 WNW 43 61 23 33 1008.1 1008.3 0.0
29/12:59pm 13.5 4.3 5.4 58 3.9 WNW 43 61 23 33 1008.2 1008.4 0.0
29/12:30pm 12.1 2.6 4.8 61 3.4 WNW 44 59 24 32 1008.3 1008.5 0.0
29/12:21pm 11.9 4.1 5.1 63 3.2 WNW 35 54 19 29 1008.5 1008.7 0.0
29/12:00pm 11.8 3.6 5.0 63 3.2 WNW 37 50 20 27 1008.9 1009.1 0.0
29/11:30am 11.9 3.9 5.5 65 3.0 WNW 37 48 20 26 1009.1 1009.3 0.0
29/11:00am 11.5 3.8 5.2 65 3.0 WNW 35 50 19 27 1009.4 1009.6 0.0
29/10:35am 9.9 3.4 4.7 70 2.4 WNW 28 46 15 25 1009.7 1010.0 0.0
29/10:30am 9.9 4.2 4.9 71 2.3 WNW 24 41 13 22 1009.8 1010.1 0.0
29/10:00am 9.8 2.7 5.6 75 2.0 NW 32 43 17 23 1009.8 1010.1 0.0
29/09:30am 8.9 1.9 4.1 72 2.2 WNW 30 41 16 22 1009.7 1010.0 0.0
29/09:00am 8.3 2.4 3.8 73 2.0 WNW 24 33 13 18 1009.6 1009.9 5.2
29/08:30am 8.2 0.7 3.7 73 2.0 WNW 32 43 17 23 1009.5 1009.8 5.2
29/08:00am 8.2 0.7 4.2 76 1.8 WNW 33 50 18 27 1009.6 1009.9 5.2
29/07:30am 6.3 0.2 2.9 79 1.5 WNW 24 43 13 23 1009.5 1009.8 5.2
29/07:00am 5.1 0.2 2.3 82 1.2 W 17 24 9 13 1009.5 1009.8 5.2
29/06:30am 3.8 -0.4 1.5 85 0.9 WNW 13 15 7 8 1009.4 1009.6 5.2
29/06:00am 2.5 -1.5 0.2 85 0.9 NW 11 13 6 7 1009.0 1009.2 5.2
29/05:30am 3.3 -1.1 0.4 81 1.1 NNW 13 19 7 10 1008.6 1008.8 5.2
29/05:00am 3.7 -2.4 0.2 78 1.4 W 22 33 12 18 1007.7 1008.0 5.2
29/04:30am 3.5 -2.4 -0.5 75 1.5 WSW 20 30 11 16 1007.7 1008.0 5.2
29/04:00am 3.5 -2.3 -1.4 70 1.8 WSW 19 30 10 16 1007.5 1007.7 5.2
29/03:30am 3.7 -1.0 -2.0 66 2.1 W 13 15 7 8 1007.2 1007.4 5.2
29/03:00am 4.2 -1.9 -2.0 64 2.3 SW 20 32 11 17 1006.9 1007.1 5.2
29/02:30am 4.7 -3.7 -2.8 58 2.7 SW 32 46 17 25 1006.7 1006.9 5.2
29/02:00am 4.8 -3.7 -3.0 57 2.8 WSW 32 50 17 27 1006.6 1006.8 5.2
29/01:31am 4.7 -4.6 -1.9 62 2.5 WSW 37 56 20 30 1006.4 1006.6 5.2
29/01:30am 4.8 -4.8 -1.8 62 2.5 WSW 39 56 21 30 1006.4 1006.6 5.2
29/01:02am 5.3 -3.7 -2.5 57 2.9 SW 35 57 19 31 1007.0 1007.2 5.2
29/01:00am 5.1 -3.3 -2.5 58 2.8 SW 32 46 17 25 1007.0 1007.2 5.2
29/12:45am 4.9 -2.8 -2.9 57 2.8 SW 28 65 15 35 1007.3 1007.5 5.2
29/12:30am 4.9 -1.1 -2.7 58 2.8 SSW 19 35 10 19 1007.4 1007.6 5.2
29/12:00am 4.9 -1.9 -1.8 62 2.5 SW 24 50 13 27 1006.2 1006.4 5.2
 
Date/Time
EDT
Temp
°C
App
Temp
°C
Dew
Point
Rel
Hum
%
Delta-T
°C
Wind Press
QNH
hPa
Press
MSL
hPa
Rain
since 9 am
mm
Dir
 
Spd
km/h
Gust
km/h
Spd
kts
Gust
kts
28/11:31pm 4.7 -2.9 -1.9 62 2.5 W 28 46 15 25 1005.4 1005.6 5.2
28/11:30pm 4.8 -3.2 -2.1 61 2.6 W 30 46 16 25 1005.4 1005.6 5.2
28/11:00pm 5.1 -3.5 -2.9 56 2.9 W 33 56 18 30 1005.1 1005.3 5.2
28/10:30pm 4.9 -2.7 -1.8 62 2.5 W 28 48 15 26 1005.2 1005.4 5.2
28/10:04pm 5.1 -2.8 -1.3 63 2.4 W 30 48 16 26 1004.8 1005.0 5.2
28/10:00pm 5.1 -2.8 -1.3 63 2.4 W 30 44 16 24 1004.8 1005.0 5.2
28/09:30pm 4.7 -2.0 -1.1 66 2.2 W 24 41 13 22 1004.3 1004.5 5.2
28/09:00pm 4.5 -3.3 -0.7 69 2.0 W 30 52 16 28 1003.5 1003.6 5.2
28/08:42pm 4.5 -2.8 -0.3 71 1.9 W 28 46 15 25 1003.0 1003.2 5.2
28/08:30pm 4.6 -2.8 -0.6 69 2.0 W 28 43 15 23 1002.7 1002.9 5.2
28/08:00pm 4.4 -3.0 -0.4 71 1.9 W 28 50 15 27 1001.8 1001.9 5.2
28/07:30pm 3.5 -5.0 1.2 85 0.9 W 35 54 19 29 1001.0 1001.1 5.2
28/07:00pm 4.4 -3.8 0.6 76 1.5 W 33 56 18 30 999.6 999.7 5.2
28/06:30pm 5.8 -2.9 -0.3 65 2.4 W 35 59 19 32 999.3 999.4 5.2
28/06:00pm 5.4 -3.8 1.1 74 1.8 W 39 63 21 34 998.1 998.2 5.2
28/05:30pm 6.1 -3.4 -1.1 60 2.8 W 39 59 21 32 997.7 997.8 4.8
28/05:00pm 6.0 -2.4 1.7 74 1.8 WSW 35 61 19 33 997.3 997.4 4.8
28/04:30pm 6.0 -2.1 1.2 71 2.0 W 33 61 18 33 997.0 997.1 4.8
28/04:00pm 3.9 -3.4 2.6 91 0.5 WSW 30 48 16 26 997.2 997.3 4.8
28/03:30pm 4.5 -2.6 3.5 93 0.4 WSW 30 48 16 26 996.7 996.8 4.4
28/03:07pm 4.5 -4.3 1.4 80 1.3 WSW 37 56 20 30 996.6 996.6 3.8
28/03:00pm 5.7 -4.3 1.1 72 1.9 WNW 43 76 23 41 995.6 995.7 3.4
28/02:51pm 6.5 -4.1 0.8 67 2.3 W 46 76 25 41 995.4 995.5 3.4
28/02:30pm 6.7 -1.6 2.4 74 1.8 W 35 57 19 31 995.6 995.7 3.4
28/02:00pm 4.2 -3.8 3.6 96 0.3 W 35 61 19 33 995.8 995.9 3.4
28/01:56pm 3.2 -5.4 2.5 95 0.3 W 37 56 20 30 996.1 996.2 3.4
28/01:55pm 3.1 -4.8 2.5 96 0.2 W 33 48 18 26 996.1 996.2 3.4
28/01:31pm 4.4 -4.7 1.8 83 1.1 WSW 39 57 21 31 995.7 995.8 2.8
28/01:30pm 4.5 -5.0 1.5 81 1.2 WSW 41 57 22 31 995.6 995.7 2.8
28/01:26pm 5.5 -5.1 0.9 72 1.9 WSW 46 57 25 31 995.2 995.3 2.6
28/01:05pm 7.8 -1.9 0.3 59 3.1 W 41 93 22 50 993.8 993.9 2.6
28/01:00pm 8.1 -1.2 2.8 69 2.3 W 41 61 22 33 994.1 994.1 2.6
28/12:57pm 7.6 -2.2 2.5 70 2.2 W 43 61 23 33 994.1 994.1 2.6
28/12:55pm 7.5 -1.8 2.8 72 2.0 W 41 56 22 30 994.1 994.1 2.6
28/12:30pm 4.2 -0.9 4.1 99 0.0 WSW 20 33 11 18 994.4 994.4 2.6
28/12:03pm 2.0 -6.0 0.5 90 0.6 WSW 32 44 17 24 994.8 994.8 1.2
28/12:00pm 3.0 -6.6 1.1 87 0.8 W 41 69 22 37 994.8 994.8 0.8
28/11:30am 6.9 -2.0 1.0 66 2.4 W 37 70 20 38 994.2 994.2 0.4
28/11:09am 6.5 -3.6 0.2 64 2.5 W 43 78 23 42 993.6 993.7 0.4
28/11:00am 7.1 -1.4 1.2 66 2.5 W 35 57 19 31 993.6 993.7 0.4
28/10:30am 5.2 -4.7 1.5 77 1.5 W 43 65 23 35 993.8 993.9 0.4
28/10:00am 4.1 -5.0 1.8 85 0.9 W 39 63 21 34 994.1 994.1 0.4
28/09:30am 4.6 -3.3 2.5 86 0.9 W 33 56 18 30 993.6 993.7 0.2
28/09:07am 6.0 -2.5 3.0 81 1.3 WNW 37 56 20 30 992.9 992.9 0.0
28/09:00am 5.7 -3.0 4.0 89 0.8 WNW 39 54 21 29 992.9 992.9 8.6
28/08:30am 3.8 -3.7 3.7 99 0.0 W 32 57 17 31 993.5 993.6 8.6
28/08:00am 4.3 -2.7 4.0 98 0.1 W 30 48 16 26 993.0 993.1 7.8
28/07:32am 4.8 -2.9 3.5 91 0.6 WNW 33 56 18 30 992.3 992.3 7.2
28/07:30am 4.8 -2.7 3.5 91 0.6 WNW 32 46 17 25 992.2 992.2 7.0
28/07:00am 4.8 -2.7 3.5 91 0.6 WNW 32 41 17 22 991.5 991.6 7.0
28/06:30am 4.0 -2.8 3.3 95 0.3 WNW 28 44 15 24 992.3 992.3 7.0
28/06:00am 3.9 -2.0 3.8 99 0.0 W 24 33 13 18 992.6 992.6 7.0
28/05:30am 4.7 -2.2 4.6 99 0.0 W 30 46 16 25 993.2 993.3 6.4
28/05:20am 5.0 -1.5 4.9 99 0.0 WNW 28 46 15 25 992.7 992.7 5.8
28/05:00am 5.5 -0.1 5.4 99 0.0 WNW 24 39 13 21 992.0 992.0 4.8
28/04:30am 5.8 -1.0 5.1 95 0.3 W 30 54 16 29 992.3 992.3 3.8
28/04:25am 6.1 -2.0 5.1 93 0.4 W 37 56 20 30 992.2 992.2 3.6
28/04:20am 6.6 -2.2 5.4 92 0.5 W 41 56 22 30 991.9 991.9 3.2
28/04:00am 7.8 -1.6 4.6 80 1.5 NW 43 69 23 37 990.8 990.8 1.6
28/03:33am 8.6 -0.6 3.4 70 2.3 NW 41 59 22 32 990.8 990.8 1.4
28/03:30am 8.4 -1.2 3.3 70 2.2 NW 43 59 23 32 990.8 990.8 1.4
28/03:18am 8.1 -3.5 3.9 75 1.9 NW 54 72 29 39 990.9 990.9 1.4
28/03:00am 4.8 -1.1 3.8 93 0.4 N 24 33 13 18 991.6 991.7 1.4
28/02:30am 4.7 -2.9 2.9 88 0.8 N 32 41 17 22 992.5 992.5 1.4

Other Formats:

Comma delimited format used in spreadsheet applications
http://www.bom.gov.au/fwo/IDT60801/IDT60801.94960.axf

JavaScript Object Notation format (JSON) in row-major order
http://www.bom.gov.au/fwo/IDT60801/IDT60801.94960.json